createdAt,value
2023-01-19T00:07:36.023Z,11.1
2023-01-19T00:22:45.867Z,13.5
2023-01-19T00:37:55.704Z,14.6
2023-01-19T00:53:04.551Z,12.6
2023-01-19T01:08:13.916Z,17.7
2023-01-19T01:23:23.640Z,13.6
2023-01-19T01:38:33.604Z,11.9
2023-01-19T01:53:43.403Z,13
2023-01-19T02:08:52.623Z,12.8
2023-01-19T02:24:01.962Z,12.2
2023-01-19T02:39:11.964Z,11
2023-01-19T02:54:22.110Z,11.5
2023-01-19T03:09:31.286Z,12.7
2023-01-19T03:24:39.928Z,12.4
2023-01-19T03:39:49.268Z,13.1
2023-01-19T03:54:59.278Z,15.5
2023-01-19T04:10:08.883Z,13.6
2023-01-19T04:25:17.679Z,11.1
2023-01-19T04:40:27.087Z,11
2023-01-19T04:55:38.008Z,15
2023-01-19T05:10:47.729Z,13.4
2023-01-19T05:25:57.155Z,12.1
2023-01-19T05:41:06.679Z,13
2023-01-19T05:56:16.803Z,11.1
2023-01-19T06:11:36.239Z,12.4
2023-01-19T06:26:47.815Z,13.7
2023-01-19T06:41:56.261Z,12
2023-01-19T06:57:06.259Z,9.9
2023-01-19T07:12:16.181Z,11
2023-01-19T07:27:25.705Z,10.8
2023-01-19T07:42:35.157Z,12.7
2023-01-19T07:57:44.258Z,12.8
2023-01-19T08:12:54.078Z,8.1
2023-01-19T08:28:03.666Z,11.8
2023-01-19T08:43:13.645Z,9
2023-01-19T08:58:23.409Z,12.8
2023-01-19T09:13:33.398Z,10.5
2023-01-19T09:28:42.864Z,11.2
2023-01-19T09:43:52.465Z,8.1
2023-01-19T09:59:01.781Z,9.8
2023-01-19T10:14:11.665Z,7.4
2023-01-19T10:29:21.455Z,8.6
2023-01-19T10:44:31.676Z,9.7
2023-01-19T10:59:41.614Z,6.1
2023-01-19T11:14:51.325Z,8.2
2023-01-19T11:30:01.216Z,7.8
2023-01-19T11:45:10.062Z,9.1
2023-01-19T12:00:19.698Z,8.7
2023-01-19T12:15:28.829Z,11.1
2023-01-19T12:30:38.682Z,12.2
2023-01-19T12:45:49.014Z,10.6
2023-01-19T13:00:59.221Z,12.8
2023-01-19T13:16:09.366Z,20.5
2023-01-19T13:31:18.794Z,17.6
2023-01-19T13:46:29.067Z,20.4
2023-01-19T14:01:39.908Z,19.8
2023-01-19T14:16:50.847Z,13
2023-01-19T14:32:00.679Z,15.1
2023-01-19T14:47:10.749Z,13.1
2023-01-19T15:02:20.588Z,16.2
2023-01-19T15:17:30.856Z,17.6
2023-01-19T15:32:40.405Z,13
2023-01-19T15:47:49.713Z,9.2
2023-01-19T16:02:59.228Z,18.5
2023-01-19T16:18:08.777Z,17.5
2023-01-19T16:33:17.351Z,26.9
2023-01-19T16:48:26.539Z,20.2
2023-01-19T17:03:35.623Z,19.8
2023-01-19T17:18:45.275Z,26
2023-01-19T17:33:54.490Z,21.5
2023-01-19T17:49:03.932Z,23.2
2023-01-19T18:04:13.274Z,22.6
2023-01-19T18:19:23.248Z,25.5
2023-01-19T18:34:32.433Z,26
2023-01-19T18:49:41.673Z,25.1
2023-01-19T19:04:50.405Z,37.6
2023-01-19T19:19:59.857Z,31.3
2023-01-19T19:35:09.697Z,36.2
2023-01-19T19:50:18.773Z,36.6
2023-01-19T20:05:28.155Z,49.2
2023-01-19T20:20:37.361Z,56.6
2023-01-19T20:35:47.020Z,44.5
2023-01-19T20:50:56.090Z,48.8
2023-01-19T21:06:06.000Z,53.4
2023-01-19T21:21:32.045Z,53.2
2023-01-19T21:36:41.607Z,54.4
2023-01-19T21:51:50.975Z,52.1
2023-01-19T22:07:00.823Z,54.3
2023-01-19T22:22:10.491Z,54.4
2023-01-19T22:37:20.238Z,59.2
2023-01-19T22:52:30.342Z,58.2
2023-01-19T23:07:39.705Z,59.4
2023-01-19T23:22:48.011Z,60.9
2023-01-19T23:37:57.409Z,51.8
2023-01-19T23:53:06.913Z,55.2
